Holloman Air Force Base
KHMN : now visible

Airfield :











YOU CAN JOIN US ON...

 
LOGIN :

Register | Disclaimer

   EN    FR    IT 

 









Legend :    VFR   Marginal VFR   IFR   Intensive IFR   Very Intensive IFR
Visi :
Ceiling :
>= 8 km
>= 3000ft
5 to 8 km
1000 to 3000 ft
1500m to 5 km
500 to 1000 ft
800 to 1500m
200 to 500 ft
< 800m
< 200 ft
Symbols :   Thunderstorms  Fog  Heavy snow  Heavy precipitations  Wind > 20 kt






- Airport Elevation : 4093 ft


KHMN - Holloman Air Force Base

CURRENT METAR :
  • 021155Z AUTO 14008KT 10SM CLR 06/M05 A3010 RMK AO2 SLP163 T00581049 10058 20021 50001 $

EXPIRED METARs :
  • 021055Z AUTO 20003KT 10SM CLR 04/M07 A3010 RMK AO2 SLP163 T00401066 $
  • 020955Z AUTO 15003KT 10SM CLR 02/M07 A3010 RMK AO2 SLP166 T00211075 $

TAF TAF KHMN
Valid from the 02 at 09:00 until the 03 at 15:00 UTC


020900Z 0209/0315 VRB06KT 9999 SCT240 QNH3010INS
BECMG 0216/0217 22009KT 9999 SCT240 QNH3011INS
TEMPO 0220/0224 24015G25KT
BECMG 0301/0302 VRB06KT 9999 SCT240 QNH3022INS
BECMG 0314/0315 VRB06KT 9000 -SHRA BKN120 SCT240 QNHINS TX19/0222Z TN03/0212Z
KZAB FIR / North America



MET'MAP, your aeronautical weather chart ! - Copyright ORBIFLY December 2007 - Disclaimer

ORBIFLY MET'MAP TEAM :

Programming & Development : Alexandra Zaïnal
Original concept : Baudouin d'Aumeries
Technical & hardware support : Manuel Goepfert
Assistance : Marc-Olivier Méhu




SOURCES & CREDITS :

   NOAA       Earth
Advisory